createdAt,value
2023-04-06T00:01:02.594Z,97503.27
2023-04-06T00:03:29.568Z,97503.58
2023-04-06T00:05:56.553Z,97500.80
2023-04-06T00:08:24.044Z,97497.91
2023-04-06T00:10:51.319Z,97490.96
2023-04-06T00:13:18.370Z,97486.20
2023-04-06T00:15:45.509Z,97487.24
2023-04-06T00:18:12.484Z,97483.36
2023-04-06T00:20:39.590Z,97482.77
2023-04-06T00:23:06.676Z,97476.63
2023-04-06T00:25:33.596Z,97475.10
2023-04-06T00:28:00.659Z,97475.48
2023-04-06T00:30:27.708Z,97470.42
2023-04-06T00:32:54.761Z,97466.64
2023-04-06T00:35:21.799Z,97466.86
2023-04-06T00:37:48.858Z,97469.49
2023-04-06T00:40:16.509Z,97467.84
2023-04-06T00:42:43.562Z,97468.05
2023-04-06T00:45:11.479Z,97467.14
2023-04-06T00:47:40.135Z,97469.28
2023-04-06T00:50:07.490Z,97464.93
2023-04-06T00:52:36.103Z,97459.33
2023-04-06T00:55:04.605Z,97458.50
2023-04-06T00:57:32.038Z,97454.02
2023-04-06T00:59:59.204Z,97451.55
2023-04-06T01:02:26.584Z,97450.60
2023-04-06T01:04:55.309Z,97448.89
2023-04-06T01:07:26.897Z,97445.94
2023-04-06T01:10:05.317Z,97447.15
2023-04-06T01:12:32.857Z,97445.11
2023-04-06T01:15:01.786Z,97445.48
2023-04-06T01:17:30.133Z,97443.63
2023-04-06T01:19:58.845Z,97441.02
2023-04-06T01:22:29.170Z,97436.88
2023-04-06T01:25:02.421Z,97433.30
2023-04-06T01:27:35.035Z,97430.29
2023-04-06T01:30:02.970Z,97430.46
2023-04-06T01:32:43.901Z,97430.54
2023-04-06T01:35:12.485Z,97425.43
2023-04-06T01:37:45.186Z,97422.71
2023-04-06T01:40:14.389Z,97422.14
2023-04-06T01:42:45.078Z,97414.30
2023-04-06T01:45:13.666Z,97410.98
2023-04-06T01:47:40.979Z,97409.91
2023-04-06T01:50:08.673Z,97402.90
2023-04-06T01:52:38.667Z,97399.75
2023-04-06T01:55:06.004Z,97395.73
2023-04-06T01:57:46.555Z,97389.17
2023-04-06T02:00:27.229Z,97386.62
2023-04-06T02:02:54.961Z,97386.96
2023-04-06T02:05:26.295Z,97383.13
2023-04-06T02:07:53.881Z,97382.73
2023-04-06T02:10:27.832Z,97376.54
2023-04-06T02:12:55.305Z,97375.29
2023-04-06T02:15:25.752Z,97373.50
2023-04-06T02:17:53.477Z,97370.09
2023-04-06T02:20:20.966Z,97372.09
2023-04-06T02:22:47.980Z,97365.95
2023-04-06T02:25:14.860Z,97362.89
2023-04-06T02:27:41.848Z,97361.94
2023-04-06T02:30:09.408Z,97361.73
2023-04-06T02:32:36.732Z,97362.59
2023-04-06T02:35:05.083Z,97360.74
2023-04-06T02:37:33.207Z,97362.24
2023-04-06T02:40:00.380Z,97361.53
2023-04-06T02:42:28.036Z,97358.04
2023-04-06T02:44:55.149Z,97354.00
2023-04-06T02:47:23.349Z,97355.16
2023-04-06T02:49:51.071Z,97358.97
2023-04-06T02:52:18.433Z,97362.48
2023-04-06T02:54:45.578Z,97361.69
2023-04-06T02:57:12.744Z,97359.70
2023-04-06T02:59:43.103Z,97357.19
2023-04-06T03:02:23.604Z,97360.42
2023-04-06T03:04:51.033Z,97359.20
2023-04-06T03:07:22.903Z,97358.40
2023-04-06T03:09:50.188Z,97356.86
2023-04-06T03:12:18.289Z,97354.20
2023-04-06T03:15:08.967Z,97351.10
2023-04-06T03:17:36.733Z,97348.32
2023-04-06T03:20:09.397Z,97350.30
2023-04-06T03:22:43.978Z,97349.75
2023-04-06T03:25:13.141Z,97350.88
2023-04-06T03:27:41.027Z,97352.00
2023-04-06T03:30:08.489Z,97351.54
2023-04-06T03:32:35.583Z,97350.80
2023-04-06T03:35:02.622Z,97348.92
2023-04-06T03:37:31.759Z,97347.16
2023-04-06T03:40:01.574Z,97345.30
2023-04-06T03:42:29.351Z,97344.77
2023-04-06T03:45:03.659Z,97343.52
2023-04-06T03:47:30.762Z,97344.92
2023-04-06T03:50:01.244Z,97342.66
2023-04-06T03:52:29.705Z,97341.89
2023-04-06T03:54:56.847Z,97346.45
2023-04-06T03:57:24.775Z,97345.60
2023-04-06T03:59:51.610Z,97343.74
2023-04-06T04:02:18.580Z,97344.58
2023-04-06T04:04:45.883Z,97343.20
2023-04-06T04:07:12.802Z,97344.68
2023-04-06T04:09:39.855Z,97347.67
2023-04-06T04:12:06.952Z,97345.79
2023-04-06T04:14:33.817Z,97347.16
2023-04-06T04:17:01.934Z,97345.38
2023-04-06T04:19:28.766Z,97345.61
2023-04-06T04:21:58.848Z,97343.38
2023-04-06T04:24:32.069Z,97344.04
2023-04-06T04:27:01.209Z,97341.53
2023-04-06T04:29:28.726Z,97344.64
2023-04-06T04:31:59.431Z,97343.66
2023-04-06T04:34:31.942Z,97346.69
2023-04-06T04:36:59.107Z,97348.25
2023-04-06T04:39:47.675Z,97350.09
2023-04-06T04:42:15.131Z,97351.20
2023-04-06T04:44:46.345Z,97354.96
2023-04-06T04:47:14.227Z,97349.84
2023-04-06T04:49:44.671Z,97350.48
2023-04-06T04:52:12.492Z,97351.05
2023-04-06T04:54:58.802Z,97350.83
2023-04-06T04:57:28.162Z,97355.80
2023-04-06T04:59:57.965Z,97356.90
2023-04-06T05:02:25.233Z,97356.16
2023-04-06T05:05:05.095Z,97356.87
2023-04-06T05:07:40.481Z,97357.76
2023-04-06T05:10:10.353Z,97358.84
2023-04-06T05:12:43.483Z,97361.11
2023-04-06T05:15:14.399Z,97353.74
2023-04-06T05:17:41.652Z,97353.51
2023-04-06T05:20:09.384Z,97356.67
2023-04-06T05:22:42.425Z,97357.32
2023-04-06T05:25:19.888Z,97360.34
2023-04-06T05:27:50.887Z,97360.96
2023-04-06T05:30:30.593Z,97361.46
2023-04-06T05:32:59.196Z,97358.71
2023-04-06T05:35:37.318Z,97358.09
2023-04-06T05:38:10.683Z,97357.55
2023-04-06T05:40:38.782Z,97354.98
2023-04-06T05:43:08.023Z,97350.31
2023-04-06T05:45:35.584Z,97348.99
2023-04-06T05:48:05.593Z,97350.70
2023-04-06T05:50:32.965Z,97351.67
2023-04-06T05:53:01.806Z,97346.70
2023-04-06T05:55:32.964Z,97349.52
2023-04-06T05:58:13.000Z,97347.52
2023-04-06T06:00:40.241Z,97347.32
2023-04-06T06:03:09.090Z,97342.49
2023-04-06T06:05:37.020Z,97338.05
2023-04-06T06:08:09.026Z,97338.65
2023-04-06T06:10:40.830Z,97334.69
2023-04-06T06:13:09.426Z,97333.23
2023-04-06T06:15:37.971Z,97332.48
2023-04-06T06:18:06.564Z,97331.70
2023-04-06T06:20:35.146Z,97328.42
2023-04-06T06:23:07.634Z,97329.70
2023-04-06T06:25:47.060Z,97328.17
2023-04-06T06:28:14.437Z,97326.73
2023-04-06T06:30:42.411Z,97322.98
2023-04-06T06:33:12.482Z,97318.13
2023-04-06T06:35:48.498Z,97318.70
2023-04-06T06:38:16.469Z,97314.52
2023-04-06T06:40:46.710Z,97318.59
2023-04-06T06:43:15.471Z,97317.44
2023-04-06T06:45:52.268Z,97316.28
2023-04-06T06:48:20.988Z,97319.64
2023-04-06T06:50:49.416Z,97317.28
2023-04-06T06:53:17.595Z,97317.45
2023-04-06T06:55:44.934Z,97320.35
2023-04-06T06:58:13.594Z,97321.27
2023-04-06T07:00:40.709Z,97319.81
2023-04-06T07:03:08.205Z,97323.13
2023-04-06T07:05:36.255Z,97325.19
2023-04-06T07:08:04.881Z,97326.50
2023-04-06T07:10:33.503Z,97332.24
2023-04-06T07:13:03.086Z,97337.20
2023-04-06T07:15:30.682Z,97335.11
2023-04-06T07:17:57.819Z,97336.75
2023-04-06T07:20:25.847Z,97338.38
2023-04-06T07:22:54.403Z,97337.81
2023-04-06T07:25:23.194Z,97333.48
2023-04-06T07:27:52.501Z,97330.88
2023-04-06T07:30:20.796Z,97330.25
2023-04-06T07:32:48.578Z,97329.71
2023-04-06T07:35:15.915Z,97332.16
2023-04-06T07:37:43.073Z,97332.64
2023-04-06T07:40:10.626Z,97336.39
2023-04-06T07:42:38.086Z,97339.45
2023-04-06T07:45:09.417Z,97335.34
2023-04-06T07:47:36.403Z,97336.40
2023-04-06T07:50:04.791Z,97337.84
2023-04-06T07:52:36.953Z,97336.34
2023-04-06T07:55:05.647Z,97333.67
2023-04-06T07:57:32.573Z,97333.81
2023-04-06T07:59:59.592Z,97336.58
2023-04-06T08:02:26.509Z,97330.23
2023-04-06T08:04:53.859Z,97329.69
2023-04-06T08:07:21.093Z,97328.42
2023-04-06T08:09:47.990Z,97323.73
2023-04-06T08:12:15.436Z,97324.93
2023-04-06T08:14:42.364Z,97330.38
2023-04-06T08:17:09.471Z,97330.80
2023-04-06T08:19:36.358Z,97327.70
2023-04-06T08:22:03.150Z,97328.63
2023-04-06T08:24:31.307Z,97328.58
2023-04-06T08:26:58.413Z,97331.42
2023-04-06T08:29:25.269Z,97330.53
2023-04-06T08:31:52.327Z,97330.90
2023-04-06T08:34:19.134Z,97330.66
2023-04-06T08:36:46.457Z,97331.23
2023-04-06T08:39:13.446Z,97327.98
2023-04-06T08:41:43.578Z,97329.14
2023-04-06T08:44:11.988Z,97331.21
2023-04-06T08:46:39.137Z,97330.11
2023-04-06T08:49:07.283Z,97331.54
2023-04-06T08:51:38.497Z,97324.17
2023-04-06T08:54:05.579Z,97327.54
2023-04-06T08:56:32.766Z,97328.79
2023-04-06T08:59:00.115Z,97330.42
2023-04-06T09:01:28.378Z,97323.21
2023-04-06T09:04:01.034Z,97327.97
2023-04-06T09:06:28.120Z,97327.79
2023-04-06T09:08:55.595Z,97328.73
2023-04-06T09:11:22.932Z,97327.70
2023-04-06T09:13:55.608Z,97327.32
2023-04-06T09:16:23.575Z,97327.43
2023-04-06T09:18:50.608Z,97325.95
2023-04-06T09:21:19.218Z,97324.55
2023-04-06T09:23:46.498Z,97324.37
2023-04-06T09:26:18.412Z,97319.85
2023-04-06T09:28:51.057Z,97322.05
2023-04-06T09:31:22.749Z,97320.77
2023-04-06T09:33:50.665Z,97324.20
2023-04-06T09:36:17.748Z,97322.42
2023-04-06T09:38:56.257Z,97320.65
2023-04-06T09:41:28.369Z,97322.73
2023-04-06T09:44:12.508Z,97324.61
2023-04-06T09:46:57.654Z,97323.59
2023-04-06T09:49:28.583Z,97321.55
2023-04-06T09:52:14.867Z,97321.46
2023-04-06T09:54:43.623Z,97323.77
2023-04-06T09:57:32.678Z,97325.64
2023-04-06T10:00:19.706Z,97325.10
2023-04-06T10:03:05.652Z,97320.01
2023-04-06T10:05:51.403Z,97320.04
2023-04-06T10:08:20.100Z,97321.77
2023-04-06T10:10:47.869Z,97317.17
2023-04-06T10:13:15.832Z,97318.14
2023-04-06T10:15:43.635Z,97317.58
2023-04-06T10:18:11.204Z,97317.25
2023-04-06T10:20:50.114Z,97318.59
2023-04-06T10:23:24.788Z,97319.21
2023-04-06T10:25:59.681Z,97316.13
2023-04-06T10:28:34.634Z,97319.88
2023-04-06T10:31:04.914Z,97316.51
2023-04-06T10:33:32.688Z,97315.16
2023-04-06T10:36:11.320Z,97319.30
2023-04-06T10:38:41.433Z,97319.27
2023-04-06T10:41:10.941Z,97316.20
2023-04-06T10:43:40.553Z,97317.98
2023-04-06T10:46:08.982Z,97317.45
2023-04-06T10:48:44.038Z,97315.82
2023-04-06T10:51:14.291Z,97316.15
2023-04-06T10:53:49.381Z,97322.34
2023-04-06T10:56:21.542Z,97320.13
2023-04-06T10:58:51.532Z,97320.13
2023-04-06T11:01:21.272Z,97322.09
2023-04-06T11:03:58.893Z,97320.35
2023-04-06T11:06:29.413Z,97321.77
2023-04-06T11:08:56.585Z,97321.31
2023-04-06T11:11:26.885Z,97320.90
2023-04-06T11:13:57.205Z,97318.88
2023-04-06T11:16:29.696Z,97320.31
2023-04-06T11:19:01.936Z,97319.86
2023-04-06T11:21:35.335Z,97319.50
2023-04-06T11:24:09.401Z,97318.09
2023-04-06T11:26:55.712Z,97320.48
2023-04-06T11:29:30.926Z,97325.02
2023-04-06T11:32:06.718Z,97326.75
2023-04-06T11:34:37.374Z,97324.59
2023-04-06T11:37:12.559Z,97322.67
2023-04-06T11:39:54.831Z,97322.69
2023-04-06T11:42:24.200Z,97326.07
2023-04-06T11:44:56.763Z,97324.27
2023-04-06T11:47:35.205Z,97325.78
2023-04-06T11:50:10.855Z,97328.73
2023-04-06T11:52:40.049Z,97332.08
2023-04-06T11:55:19.155Z,97330.59
2023-04-06T11:57:46.153Z,97326.36
2023-04-06T12:00:13.633Z,97326.41
2023-04-06T12:02:46.292Z,97327.59
2023-04-06T12:05:13.411Z,97325.61
2023-04-06T12:10:12.873Z,97328.31
2023-04-06T12:12:39.950Z,97325.58
2023-04-06T12:15:07.839Z,97322.17
2023-04-06T12:17:35.523Z,97326.46
2023-04-06T12:20:09.483Z,97326.98
2023-04-06T12:22:44.825Z,97325.44
2023-04-06T12:25:12.404Z,97328.77
2023-04-06T12:27:39.338Z,97335.41
2023-04-06T12:30:07.407Z,97335.59
2023-04-06T12:32:34.363Z,97338.54
2023-04-06T12:35:01.476Z,97341.84
2023-04-06T12:37:28.544Z,97341.47
2023-04-06T12:39:55.622Z,97349.77
2023-04-06T12:42:23.054Z,97346.85
2023-04-06T12:44:50.316Z,97347.46
2023-04-06T12:47:18.725Z,97345.48
2023-04-06T12:49:45.908Z,97347.27
2023-04-06T12:52:13.394Z,97345.44
2023-04-06T12:54:40.408Z,97346.89
2023-04-06T12:57:07.584Z,97346.63
2023-04-06T12:59:36.352Z,97345.58
2023-04-06T13:02:04.530Z,97340.30
2023-04-06T13:04:31.712Z,97346.36
2023-04-06T13:07:01.779Z,97342.34
2023-04-06T13:09:29.991Z,97339.18
2023-04-06T13:11:58.226Z,97341.43
2023-04-06T13:14:25.510Z,97343.63
2023-04-06T13:16:55.006Z,97344.00
2023-04-06T13:19:23.077Z,97342.23
2023-04-06T13:21:53.998Z,97342.55
2023-04-06T13:24:22.164Z,97343.51
2023-04-06T13:26:49.615Z,97349.57
2023-04-06T13:29:16.612Z,97344.75
2023-04-06T13:31:44.025Z,97345.82
2023-04-06T13:34:11.782Z,97347.62
2023-04-06T13:36:41.886Z,97348.27
2023-04-06T13:39:09.810Z,97349.15
2023-04-06T13:41:40.689Z,97342.81
2023-04-06T13:44:07.809Z,97342.13
2023-04-06T13:46:35.130Z,97340.13
2023-04-06T13:49:02.102Z,97340.89
2023-04-06T13:51:29.312Z,97345.70
2023-04-06T13:53:56.589Z,97341.20
2023-04-06T13:56:23.787Z,97342.05
2023-04-06T13:58:55.549Z,97335.50
2023-04-06T14:01:23.521Z,97336.17
2023-04-06T14:03:50.893Z,97340.77
2023-04-06T14:08:48.612Z,97343.20
2023-04-06T14:11:16.716Z,97343.77
2023-04-06T14:13:43.934Z,97353.23
2023-04-06T14:16:11.411Z,97348.58
2023-04-06T14:18:38.661Z,97351.89
2023-04-06T14:21:05.957Z,97352.38
2023-04-06T14:23:33.715Z,97348.86
2023-04-06T14:26:13.516Z,97343.46
2023-04-06T14:28:42.129Z,97345.69
2023-04-06T14:31:16.745Z,97350.77
2023-04-06T14:33:44.221Z,97348.89
2023-04-06T14:36:13.364Z,97351.57
2023-04-06T14:40:43.017Z,97351.13
2023-04-06T14:45:45.906Z,97349.80
2023-04-06T14:52:50.244Z,97350.08
2023-04-06T14:55:17.590Z,97349.54
2023-04-06T14:57:44.716Z,97352.62
2023-04-06T16:01:26.142Z,97386.95
2023-04-06T16:03:53.180Z,97387.41
2023-04-06T16:06:20.043Z,97391.98
2023-04-06T16:08:47.089Z,97395.63
2023-04-06T16:11:14.063Z,97397.42
2023-04-06T16:13:45.017Z,97402.15
2023-04-06T16:16:16.663Z,97407.29
2023-04-06T16:18:43.516Z,97409.73
2023-04-06T16:21:18.170Z,97411.48
2023-04-06T16:23:47.199Z,97415.29
2023-04-06T16:26:17.400Z,97420.75
2023-04-06T16:28:45.192Z,97417.80
2023-04-06T16:31:23.099Z,97422.13
2023-04-06T16:33:51.907Z,97422.73
2023-04-06T16:36:27.254Z,97422.70
2023-04-06T16:38:58.501Z,97423.22
2023-04-06T16:41:28.383Z,97422.96
2023-04-06T16:43:56.660Z,97424.52
2023-04-06T16:46:35.143Z,97424.25
2023-04-06T16:49:05.295Z,97427.73
2023-04-06T16:51:32.311Z,97427.60
2023-04-06T16:53:59.232Z,97427.71
2023-04-06T16:56:26.047Z,97426.52
2023-04-06T16:58:52.823Z,97430.20
2023-04-06T17:01:20.257Z,97434.63
2023-04-06T17:03:47.615Z,97431.17
2023-04-06T17:06:15.164Z,97434.18
2023-04-06T17:08:45.138Z,97435.76
2023-04-06T17:11:15.352Z,97435.81
2023-04-06T17:13:43.758Z,97437.49
2023-04-06T17:16:11.731Z,97435.77
2023-04-06T17:18:38.581Z,97435.80
2023-04-06T17:21:10.740Z,97434.30
2023-04-06T17:23:37.559Z,97434.06
2023-04-06T17:26:05.837Z,97433.15
2023-04-06T22:05:41.398Z,97470.96
